Time;durP1;ratioP1;P1;durP2;ratioP2;P2;SDS_P1;SDS_P2;PMS_P1;PMS_P2;Temp;Humidity;BMP_temperature;BMP_pressure;BME280_temperature;BME280_humidity;BME280_pressure;Samples;Min_cycle;Max_cycle;Signal;HPM_P1;HPM_P2
2023/03/08 00:01:34;;;;;;;14.90;9.88;;;7.50;64.60;;;;;;4919746;29;20808;-63
2023/03/08 00:04:15;;;;;;;15.90;8.05;;;7.50;64.70;;;;;;4921577;29;20866;-63
2023/03/08 00:06:53;;;;;;;17.10;9.55;;;7.50;64.60;;;;;;4919512;29;20230;-63
2023/03/08 00:09:25;;;;;;;14.68;8.68;;;7.50;64.50;;;;;;4922133;29;20212;-63
2023/03/08 00:12:02;;;;;;;15.45;8.43;;;7.50;64.50;;;;;;4928017;29;20215;-63
2023/03/08 00:14:34;;;;;;;15.23;8.65;;;7.50;64.60;;;;;;4928688;29;20759;-64
2023/03/08 00:17:07;;;;;;;16.75;9.25;;;7.50;64.60;;;;;;4926071;29;20251;-64
2023/03/08 00:19:44;;;;;;;14.10;9.18;;;7.50;64.50;;;;;;4924826;29;20208;-63
2023/03/08 00:22:14;;;;;;;18.35;9.40;;;7.50;64.50;;;;;;4923773;29;20317;-63
2023/03/08 00:24:45;;;;;;;16.67;8.95;;;7.50;64.30;;;;;;4923740;29;20220;-64
2023/03/08 00:27:29;;;;;;;14.70;8.20;;;7.50;64.40;;;;;;4925747;29;20224;-63
2023/03/08 00:30:04;;;;;;;15.60;8.20;;;7.50;64.50;;;;;;4927207;29;20216;-63
2023/03/08 00:32:36;;;;;;;14.50;9.35;;;7.40;64.40;;;;;;4925079;29;20555;-63
2023/03/08 00:35:09;;;;;;;17.97;8.67;;;7.50;64.50;;;;;;4903322;29;20248;-63
2023/03/08 00:37:50;;;;;;;14.32;8.45;;;7.50;64.40;;;;;;4921903;29;20475;-63
2023/03/08 00:40:28;;;;;;;15.85;8.63;;;7.40;64.60;;;;;;4926690;29;20620;-63
2023/03/08 00:43:12;;;;;;;14.03;7.30;;;7.40;64.40;;;;;;4926614;29;20226;-63
2023/03/08 00:45:43;;;;;;;15.05;9.20;;;7.50;64.40;;;;;;4931870;29;20819;-63
2023/03/08 00:48:12;;;;;;;15.27;8.23;;;7.50;64.20;;;;;;4926835;29;20712;-63
2023/03/08 00:50:50;;;;;;;15.27;8.55;;;7.40;64.30;;;;;;4927904;29;20593;-66
2023/03/08 00:53:27;;;;;;;15.35;8.80;;;7.50;64.40;;;;;;4925831;29;20214;-63
2023/03/08 00:56:08;;;;;;;15.57;8.35;;;7.40;64.30;;;;;;4927517;29;20203;-63
2023/03/08 00:58:47;;;;;;;14.20;8.57;;;7.40;64.40;;;;;;4919709;29;20547;-63
2023/03/08 01:01:19;;;;;;;16.15;8.90;;;7.50;64.30;;;;;;4927325;29;20489;-63
2023/03/08 01:03:54;;;;;;;16.20;8.25;;;7.50;64.30;;;;;;4910606;29;20314;-63
2023/03/08 01:06:27;;;;;;;14.15;8.18;;;7.50;64.30;;;;;;4922142;29;20224;-63
2023/03/08 01:08:57;;;;;;;13.30;8.32;;;7.50;64.20;;;;;;4926946;29;20741;-63
2023/03/08 01:11:37;;;;;;;17.30;8.53;;;7.50;64.30;;;;;;4926446;29;20208;-63
2023/03/08 01:14:22;;;;;;;13.98;8.10;;;7.40;64.30;;;;;;4927560;29;20505;-63
2023/03/08 01:16:54;;;;;;;14.57;7.55;;;7.40;64.20;;;;;;4931030;29;20292;-63
2023/03/08 01:19:25;;;;;;;15.15;8.73;;;7.50;64.30;;;;;;4923808;29;20212;-63
2023/03/08 01:22:01;;;;;;;15.27;9.50;;;7.50;64.20;;;;;;4925118;29;20218;-63
2023/03/08 01:24:33;;;;;;;13.37;8.57;;;7.50;64.20;;;;;;4923948;29;20243;-63
2023/03/08 01:27:05;;;;;;;16.23;8.80;;;7.50;64.20;;;;;;4923063;29;20467;-63
2023/03/08 01:29:44;;;;;;;15.85;8.57;;;7.50;64.10;;;;;;4925426;29;20212;-64
2023/03/08 01:35:04;;;;;;;16.20;8.00;;;7.50;64.10;;;;;;4921950;29;20950;-63
2023/03/08 01:40:20;;;;;;;15.15;8.18;;;7.40;64.30;;;;;;4925875;29;20200;-63
2023/03/08 01:42:53;;;;;;;14.77;7.88;;;7.40;64.20;;;;;;4922510;29;20360;-63
2023/03/08 01:46:15;;;;;;;14.10;8.43;;;7.50;64.00;;;;;;4932605;29;20785;-63
2023/03/08 01:49:14;;;;;;;14.50;8.93;;;7.40;64.00;;;;;;4871708;29;20220;-63
2023/03/08 01:51:53;;;;;;;23.35;9.45;;;7.40;64.10;;;;;;4920155;29;20212;-63
2023/03/08 01:54:31;;;;;;;14.45;8.50;;;7.30;64.10;;;;;;4926635;29;20211;-63
2023/03/08 01:57:05;;;;;;;17.30;9.13;;;7.40;64.20;;;;;;4922606;29;20262;-63
2023/03/08 01:59:41;;;;;;;14.57;8.80;;;7.30;64.20;;;;;;4907975;29;20214;-63
2023/03/08 02:02:19;;;;;;;15.32;8.70;;;7.30;64.10;;;;;;4921911;29;20598;-65
2023/03/08 02:05:15;;;;;;;14.85;9.30;;;7.30;64.10;;;;;;4925509;29;20955;-64
2023/03/08 02:07:52;;;;;;;14.43;8.80;;;7.30;64.10;;;;;;4925471;29;20208;-63
2023/03/08 02:10:24;;;;;;;17.23;9.10;;;7.30;64.10;;;;;;4923250;29;20219;-63
2023/03/08 02:12:57;;;;;;;16.40;9.33;;;7.30;64.10;;;;;;4925812;29;20278;-63
2023/03/08 02:15:34;;;;;;;17.23;8.18;;;7.30;64.20;;;;;;4914971;29;20463;-63
2023/03/08 02:18:10;;;;;;;13.60;8.43;;;7.30;64.10;;;;;;4924261;29;20211;-64
2023/03/08 02:20:46;;;;;;;13.73;8.70;;;7.30;64.00;;;;;;4926591;29;20481;-63
2023/03/08 02:23:31;;;;;;;15.85;9.05;;;7.30;64.00;;;;;;4923273;29;20221;-64
2023/03/08 02:26:09;;;;;;;15.60;8.02;;;7.30;64.10;;;;;;4923561;29;20697;-64
2023/03/08 02:28:42;;;;;;;15.32;8.95;;;7.30;64.00;;;;;;4925789;29;20219;-65
2023/03/08 02:31:15;;;;;;;14.75;9.40;;;7.30;64.10;;;;;;4928378;29;20270;-63
2023/03/08 02:33:55;;;;;;;14.77;9.52;;;7.30;64.10;;;;;;4926323;29;20235;-64
2023/03/08 02:36:36;;;;;;;16.25;9.20;;;7.30;64.10;;;;;;4928093;29;20211;-64
2023/03/08 02:39:21;;;;;;;16.50;10.30;;;7.30;64.10;;;;;;4925778;29;20231;-63
2023/03/08 02:41:49;;;;;;;17.80;8.60;;;7.40;64.10;;;;;;4925043;29;20214;-64
2023/03/08 02:44:25;;;;;;;18.77;8.85;;;7.30;64.20;;;;;;4928674;29;20606;-63
2023/03/08 02:46:57;;;;;;;14.85;9.55;;;7.30;64.10;;;;;;4926557;28;20369;-64
2023/03/08 02:49:29;;;;;;;18.73;9.20;;;7.40;64.10;;;;;;4911085;29;20221;-64
2023/03/08 02:51:59;;;;;;;15.10;8.80;;;7.40;64.00;;;;;;4921581;29;20602;-63
2023/03/08 02:54:32;;;;;;;17.10;9.27;;;7.40;64.00;;;;;;4926155;29;20601;-63
2023/03/08 02:57:05;;;;;;;16.67;9.93;;;7.40;64.00;;;;;;4924184;29;20210;-63
2023/03/08 02:59:43;;;;;;;17.65;9.52;;;7.40;63.90;;;;;;4925008;29;20233;-63
2023/03/08 03:02:17;;;;;;;15.45;8.85;;;7.40;63.90;;;;;;4925359;29;20235;-64
2023/03/08 03:04:59;;;;;;;16.48;10.38;;;7.30;63.90;;;;;;4925114;29;20263;-63
2023/03/08 03:07:35;;;;;;;15.65;9.18;;;7.30;63.90;;;;;;4926200;29;20321;-63
2023/03/08 03:10:15;;;;;;;16.88;9.38;;;7.30;63.90;;;;;;4919682;29;20211;-64
2023/03/08 03:12:49;;;;;;;19.30;10.70;;;7.30;64.00;;;;;;4925025;29;20264;-63
2023/03/08 03:15:21;;;;;;;15.90;8.90;;;7.20;64.00;;;;;;4923570;29;20235;-63
2023/03/08 03:18:01;;;;;;;15.60;9.20;;;7.30;64.00;;;;;;4925618;29;20222;-63
2023/03/08 03:20:42;;;;;;;20.60;10.10;;;7.30;64.00;;;;;;4910770;29;20214;-63
2023/03/08 03:23:15;;;;;;;15.27;9.40;;;7.30;64.00;;;;;;4922385;29;20216;-64
2023/03/08 03:26:08;;;;;;;17.10;9.32;;;7.30;63.90;;;;;;4914068;29;20255;-64
2023/03/08 03:28:40;;;;;;;15.40;9.05;;;7.30;64.00;;;;;;4925057;29;20225;-64
2023/03/08 03:31:20;;;;;;;15.18;9.10;;;7.20;63.90;;;;;;4923110;29;20230;-63
2023/03/08 03:33:53;;;;;;;19.37;8.80;;;7.30;64.00;;;;;;4917947;29;20662;-63
2023/03/08 03:36:34;;;;;;;17.67;10.73;;;7.30;64.00;;;;;;4925975;29;20514;-63
2023/03/08 03:39:08;;;;;;;17.35;8.82;;;7.30;63.90;;;;;;4922458;29;20901;-64
2023/03/08 03:41:46;;;;;;;17.90;9.50;;;7.30;63.90;;;;;;4923432;29;20230;-63
2023/03/08 03:44:15;;;;;;;21.65;10.27;;;7.30;63.80;;;;;;4926347;29;20276;-63
2023/03/08 03:47:09;;;;;;;19.45;11.30;;;7.30;63.80;;;;;;4926261;29;20244;-63
2023/03/08 03:49:45;;;;;;;17.40;9.48;;;7.20;63.70;;;;;;4917898;29;20226;-63
2023/03/08 03:52:21;;;;;;;18.75;8.68;;;7.20;63.90;;;;;;4922338;29;20222;-64
2023/03/08 03:55:00;;;;;;;16.65;9.07;;;7.20;63.90;;;;;;4926246;29;20214;-63
2023/03/08 03:57:40;;;;;;;16.20;9.35;;;7.20;63.90;;;;;;4915129;29;20207;-64
2023/03/08 04:03:30;;;;;;;14.30;8.65;;;7.20;63.90;;;;;;4928164;29;20207;-64
2023/03/08 04:06:15;;;;;;;15.82;9.02;;;7.20;63.90;;;;;;4927052;29;20763;-63
2023/03/08 04:08:50;;;;;;;17.63;10.35;;;7.20;63.80;;;;;;4918727;29;20215;-63
2023/03/08 04:11:22;;;;;;;18.80;9.55;;;7.20;63.80;;;;;;4929520;29;20666;-63
2023/03/08 04:14:00;;;;;;;18.38;9.52;;;7.20;63.80;;;;;;4926221;29;20223;-63
2023/03/08 04:16:36;;;;;;;16.63;8.93;;;7.10;63.80;;;;;;4912775;29;20231;-63
2023/03/08 04:19:13;;;;;;;17.30;9.48;;;7.10;63.90;;;;;;4926514;29;20239;-63
2023/03/08 04:21:56;;;;;;;15.70;9.02;;;7.10;63.80;;;;;;4927012;29;20207;-63
2023/03/08 04:24:33;;;;;;;18.95;9.98;;;7.10;63.80;;;;;;4927719;29;20248;-64
2023/03/08 04:27:12;;;;;;;16.65;9.35;;;7.10;63.70;;;;;;4927018;29;20306;-64
2023/03/08 04:29:47;;;;;;;18.92;10.05;;;7.10;63.60;;;;;;4928994;29;20215;-63
2023/03/08 04:32:17;;;;;;;18.15;10.05;;;7.00;63.60;;;;;;4923656;29;20226;-63
2023/03/08 04:34:54;;;;;;;16.23;9.30;;;7.00;63.60;;;;;;4927554;29;20222;-63
2023/03/08 04:37:30;;;;;;;19.52;10.93;;;7.00;63.60;;;;;;4927886;29;20711;-64
2023/03/08 04:40:09;;;;;;;16.02;9.70;;;6.90;63.70;;;;;;4920378;29;20657;-63
2023/03/08 04:42:53;;;;;;;19.48;10.13;;;6.90;63.60;;;;;;4925564;29;20592;-63
2023/03/08 04:45:31;;;;;;;18.27;10.63;;;6.90;63.60;;;;;;4929165;29;20218;-63
2023/03/08 04:48:08;;;;;;;16.88;10.45;;;6.90;63.70;;;;;;4928477;29;20297;-63
2023/03/08 04:50:47;;;;;;;19.70;10.93;;;6.90;63.60;;;;;;4926001;29;20210;-63
2023/03/08 04:53:20;;;;;;;15.18;9.35;;;6.90;63.60;;;;;;4910876;29;20277;-64
2023/03/08 04:55:52;;;;;;;17.80;10.93;;;6.90;63.60;;;;;;4928306;29;20648;-63
2023/03/08 04:58:32;;;;;;;20.92;9.85;;;6.90;63.50;;;;;;4918945;29;20215;-63
2023/03/08 05:01:11;;;;;;;15.68;10.27;;;6.90;63.50;;;;;;4929811;29;22326;-63
2023/03/08 05:03:48;;;;;;;18.63;10.48;;;6.80;63.50;;;;;;4925933;29;20306;-63
2023/03/08 05:06:31;;;;;;;18.42;10.23;;;6.80;63.50;;;;;;4930148;29;20246;-63
2023/03/08 05:09:04;;;;;;;16.75;10.10;;;6.80;63.50;;;;;;4914443;29;20564;-64
2023/03/08 05:11:39;;;;;;;19.00;11.13;;;6.80;63.50;;;;;;4924138;29;20286;-63
2023/03/08 05:14:14;;;;;;;20.65;11.05;;;6.70;63.50;;;;;;4927165;29;20226;-63
2023/03/08 05:16:56;;;;;;;18.27;10.20;;;6.70;63.60;;;;;;4908895;29;20208;-63
2023/03/08 05:19:44;;;;;;;20.98;11.48;;;6.80;63.60;;;;;;4925225;29;20310;-63
2023/03/08 05:22:26;;;;;;;17.75;10.45;;;6.80;63.60;;;;;;4926220;29;20210;-63
2023/03/08 05:24:58;;;;;;;18.77;10.15;;;6.70;63.50;;;;;;4906637;29;20210;-63
2023/03/08 05:27:31;;;;;;;20.45;11.63;;;6.70;63.50;;;;;;4917081;29;21106;-65
2023/03/08 05:30:02;;;;;;;16.75;10.73;;;6.80;63.50;;;;;;4927360;29;20214;-63
2023/03/08 05:33:01;;;;;;;17.17;10.10;;;6.80;63.50;;;;;;4921914;29;20246;-63
2023/03/08 05:35:36;;;;;;;22.88;11.93;;;6.70;63.50;;;;;;4916154;29;20233;-63
2023/03/08 05:38:09;;;;;;;19.38;11.18;;;6.60;63.50;;;;;;4924416;29;20214;-63
2023/03/08 05:40:39;;;;;;;17.33;9.82;;;6.60;63.50;;;;;;4926685;29;20203;-63
2023/03/08 05:43:18;;;;;;;19.17;10.80;;;6.60;63.60;;;;;;4925056;29;20224;-63
2023/03/08 05:45:58;;;;;;;18.45;11.65;;;6.70;63.60;;;;;;4927091;29;20226;-63
2023/03/08 05:48:37;;;;;;;20.88;10.68;;;6.70;63.70;;;;;;4928654;29;20229;-63
2023/03/08 05:51:07;;;;;;;19.80;11.98;;;6.70;63.60;;;;;;4910889;29;20292;-63
2023/03/08 05:53:47;;;;;;;16.13;9.77;;;6.70;63.60;;;;;;4928144;29;20215;-63
2023/03/08 05:56:30;;;;;;;19.48;11.20;;;6.70;63.70;;;;;;4926384;29;20215;-63
2023/03/08 05:59:18;;;;;;;17.50;10.13;;;6.70;63.70;;;;;;4926235;29;20286;-64
2023/03/08 06:01:52;;;;;;;18.55;10.38;;;6.70;63.60;;;;;;4922235;29;20227;-64
2023/03/08 06:04:34;;;;;;;20.40;10.98;;;6.70;63.70;;;;;;4925711;29;20212;-63
2023/03/08 06:07:12;;;;;;;20.08;11.27;;;6.70;63.70;;;;;;4925422;29;20227;-64
2023/03/08 06:09:51;;;;;;;17.88;11.40;;;6.70;63.70;;;;;;4907035;29;20210;-63
2023/03/08 06:12:23;;;;;;;17.88;11.00;;;6.70;63.70;;;;;;4923115;29;20219;-63
2023/03/08 06:14:59;;;;;;;20.80;11.40;;;6.70;63.70;;;;;;4924298;29;20226;-64
2023/03/08 06:17:38;;;;;;;18.70;10.80;;;6.80;63.70;;;;;;4924806;29;20566;-63
2023/03/08 06:20:29;;;;;;;17.52;10.43;;;6.80;63.70;;;;;;4923376;29;20304;-63
2023/03/08 06:23:06;;;;;;;19.48;11.50;;;6.80;63.70;;;;;;4919645;29;20223;-63
2023/03/08 06:25:43;;;;;;;18.52;11.52;;;6.80;63.70;;;;;;4929374;29;20215;-63
2023/03/08 06:28:16;;;;;;;22.95;11.73;;;6.70;63.70;;;;;;4928826;29;20938;-64
2023/03/08 06:30:55;;;;;;;18.95;11.35;;;6.70;63.70;;;;;;4924772;29;20238;-63
2023/03/08 06:33:28;;;;;;;17.45;11.00;;;6.70;63.80;;;;;;4924140;29;20298;-63
2023/03/08 06:36:05;;;;;;;19.25;11.77;;;6.70;63.80;;;;;;4924368;29;20233;-63
2023/03/08 06:38:37;;;;;;;17.65;11.02;;;6.70;63.80;;;;;;4923846;29;20211;-63
2023/03/08 06:41:08;;;;;;;21.05;12.55;;;6.70;63.80;;;;;;4923670;29;20200;-63
2023/03/08 06:43:52;;;;;;;20.92;11.70;;;6.70;63.90;;;;;;4925972;29;20264;-64
2023/03/08 06:46:28;;;;;;;20.80;11.68;;;6.60;63.90;;;;;;4927390;29;20252;-63
2023/03/08 06:48:59;;;;;;;21.90;12.43;;;6.60;64.00;;;;;;4924272;29;20568;-63
2023/03/08 06:51:44;;;;;;;21.27;12.52;;;6.60;64.00;;;;;;4925179;29;20219;-63
2023/03/08 06:54:17;;;;;;;21.55;12.43;;;6.60;64.30;;;;;;4924174;29;20241;-64
2023/03/08 06:56:58;;;;;;;23.65;13.82;;;6.50;64.40;;;;;;4908857;29;20297;-63
2023/03/08 07:02:23;;;;;;;21.75;12.23;;;6.50;64.70;;;;;;4921649;29;20286;-67
2023/03/08 07:04:56;;;;;;;25.83;14.25;;;6.50;64.70;;;;;;4925638;29;20280;-66
2023/03/08 07:07:35;;;;;;;23.33;13.40;;;6.40;64.80;;;;;;4923627;29;20215;-66
2023/03/08 07:10:15;;;;;;;25.73;14.25;;;6.40;65.00;;;;;;4926366;29;20208;-66
2023/03/08 07:12:50;;;;;;;23.13;12.57;;;6.40;65.10;;;;;;4926373;29;21677;-66
2023/03/08 07:15:20;;;;;;;25.83;13.57;;;6.40;65.30;;;;;;4926641;29;20589;-66
2023/03/08 07:17:56;;;;;;;18.92;12.30;;;6.30;65.50;;;;;;4924402;29;20209;-67
2023/03/08 07:20:41;;;;;;;21.85;12.90;;;6.30;65.60;;;;;;4926095;29;20206;-66
2023/03/08 07:23:11;;;;;;;21.42;13.02;;;6.30;65.80;;;;;;4923912;29;20208;-67
2023/03/08 07:25:45;;;;;;;21.52;12.82;;;6.30;65.90;;;;;;4922688;29;20210;-66
2023/03/08 07:28:17;;;;;;;23.92;12.90;;;6.20;66.20;;;;;;4926506;29;20574;-66
2023/03/08 07:30:50;;;;;;;21.83;12.18;;;6.20;66.30;;;;;;4925745;29;20231;-66
2023/03/08 07:33:25;;;;;;;20.75;12.80;;;6.20;66.50;;;;;;4926751;29;20202;-66
2023/03/08 07:35:57;;;;;;;22.92;13.05;;;6.20;66.60;;;;;;4925154;29;20274;-67
2023/03/08 07:38:32;;;;;;;24.98;12.60;;;6.20;66.70;;;;;;4914973;29;20214;-68
2023/03/08 07:41:00;;;;;;;19.77;12.00;;;6.20;66.90;;;;;;4926074;29;20215;-65
2023/03/08 07:43:31;;;;;;;21.05;12.65;;;6.30;67.00;;;;;;4929131;29;20721;-65
2023/03/08 07:46:22;;;;;;;20.65;12.88;;;6.30;67.00;;;;;;4929640;29;20205;-65
2023/03/08 07:49:00;;;;;;;24.95;13.35;;;6.30;67.10;;;;;;4925716;29;20610;-65
2023/03/08 07:51:30;;;;;;;21.85;12.95;;;6.30;67.20;;;;;;4928871;29;20226;-65
2023/03/08 07:54:20;;;;;;;23.33;12.05;;;6.30;67.40;;;;;;4929888;29;20205;-67
2023/03/08 07:56:52;;;;;;;20.80;12.18;;;6.30;67.50;;;;;;4926328;29;20224;-65
2023/03/08 07:59:34;;;;;;;21.90;12.00;;;6.20;67.50;;;;;;4929001;29;20564;-65
2023/03/08 08:02:11;;;;;;;23.77;13.90;;;6.20;67.60;;;;;;4924971;29;20241;-65
2023/03/08 08:04:45;;;;;;;22.52;11.38;;;6.20;67.80;;;;;;4927211;29;20238;-67
2023/03/08 08:07:16;;;;;;;21.33;13.00;;;6.20;68.10;;;;;;4923656;29;20219;-67
2023/03/08 08:10:02;;;;;;;25.75;13.45;;;6.20;68.00;;;;;;4925422;29;20571;-65
2023/03/08 08:12:33;;;;;;;23.83;13.82;;;6.20;68.20;;;;;;4910180;29;20206;-66
2023/03/08 08:15:03;;;;;;;23.10;12.90;;;6.10;68.20;;;;;;4923807;29;20229;-66
2023/03/08 08:17:35;;;;;;;154.73;58.22;;;6.10;68.30;;;;;;4927403;29;20215;-67
2023/03/08 08:20:14;;;;;;;139.20;49.92;;;6.10;68.60;;;;;;4922304;29;20269;-66
2023/03/08 08:22:45;;;;;;;49.42;24.13;;;6.10;68.70;;;;;;4925076;29;20567;-66
2023/03/08 08:25:20;;;;;;;31.38;15.95;;;6.00;68.80;;;;;;4924697;29;20214;-66
2023/03/08 08:27:52;;;;;;;26.35;13.57;;;6.00;69.10;;;;;;4923652;29;20212;-66
2023/03/08 08:30:25;;;;;;;29.60;15.18;;;5.90;69.10;;;;;;4926156;29;20214;-66
2023/03/08 08:33:00;;;;;;;24.90;14.23;;;5.80;69.30;;;;;;4924296;29;20204;-67
2023/03/08 08:35:40;;;;;;;22.20;13.57;;;5.90;69.30;;;;;;4929359;29;20298;-66
2023/03/08 08:38:15;;;;;;;23.77;13.27;;;5.70;69.80;;;;;;4922083;29;20228;-66
2023/03/08 08:40:52;;;;;;;25.52;13.63;;;5.70;69.80;;;;;;4926833;29;20219;-67
2023/03/08 08:43:26;;;;;;;26.08;14.60;;;5.50;70.30;;;;;;4923690;29;20228;-68
2023/03/08 08:45:57;;;;;;;24.38;14.18;;;5.50;70.40;;;;;;4926330;29;20210;-66
2023/03/08 08:48:40;;;;;;;33.58;21.25;;;5.30;70.70;;;;;;4928348;29;20335;-66
2023/03/08 08:51:16;;;;;;;27.48;16.38;;;5.30;70.90;;;;;;4922030;29;20715;-66
2023/03/08 08:53:45;;;;;;;27.63;15.75;;;5.30;71.10;;;;;;4922622;29;20212;-67
2023/03/08 08:56:26;;;;;;;27.02;14.60;;;5.30;71.30;;;;;;4926942;29;20261;-66
2023/03/08 08:59:02;;;;;;;21.27;12.45;;;5.30;71.50;;;;;;4917387;29;20745;-66
2023/03/08 09:01:35;;;;;;;28.42;13.55;;;5.20;72.00;;;;;;4926545;29;20772;-66
2023/03/08 09:04:08;;;;;;;22.27;13.10;;;5.20;71.80;;;;;;4923525;29;20221;-67
2023/03/08 09:06:42;;;;;;;25.23;14.38;;;5.20;72.10;;;;;;4924016;29;20549;-64
2023/03/08 09:09:19;;;;;;;24.40;14.10;;;5.20;72.00;;;;;;4923168;29;20251;-65
2023/03/08 09:11:51;;;;;;;22.38;14.13;;;5.20;72.30;;;;;;4925220;29;20843;-65
2023/03/08 09:14:26;;;;;;;23.98;13.13;;;5.30;72.40;;;;;;4923454;29;20213;-64
2023/03/08 09:16:56;;;;;;;19.40;13.20;;;5.30;72.40;;;;;;4925812;29;20225;-65
2023/03/08 09:19:35;;;;;;;25.85;14.80;;;5.30;72.70;;;;;;4924372;29;20221;-64
2023/03/08 09:22:14;;;;;;;27.25;16.08;;;5.40;72.40;;;;;;4923752;29;20592;-64
2023/03/08 09:24:55;;;;;;;25.27;14.95;;;5.30;72.60;;;;;;4923900;29;20819;-67
2023/03/08 09:27:36;;;;;;;26.65;14.80;;;5.20;72.70;;;;;;4930753;29;20221;-65
2023/03/08 09:30:24;;;;;;;24.73;14.55;;;5.20;72.90;;;;;;4924453;29;20231;-64
2023/03/08 09:33:08;;;;;;;27.48;14.63;;;5.30;72.80;;;;;;4922648;29;20321;-64
2023/03/08 09:35:39;;;;;;;25.52;15.68;;;5.20;72.90;;;;;;4925754;29;20212;-65
2023/03/08 09:38:19;;;;;;;23.33;12.95;;;5.20;73.20;;;;;;4923402;29;20205;-64
2023/03/08 09:41:13;;;;;;;22.40;15.18;;;5.20;73.40;;;;;;4927197;29;20220;-65
2023/03/08 09:44:11;;;;;;;26.33;14.63;;;5.20;73.40;;;;;;4925900;29;20216;-64
2023/03/08 09:46:53;;;;;;;30.60;15.52;;;5.20;73.50;;;;;;4920226;29;20275;-65
2023/03/08 09:49:33;;;;;;;31.48;14.95;;;5.30;73.40;;;;;;4926084;29;20229;-67
2023/03/08 09:52:16;;;;;;;26.95;14.30;;;5.30;73.70;;;;;;4924194;29;20231;-65
2023/03/08 09:54:51;;;;;;;24.75;14.02;;;5.30;73.80;;;;;;4924780;29;20213;-64
2023/03/08 09:57:27;;;;;;;25.02;14.18;;;5.30;74.00;;;;;;4922991;29;21150;-64
2023/03/08 10:00:22;;;;;;;21.30;13.30;;;5.30;74.10;;;;;;4906788;29;20297;-67
2023/03/08 10:03:09;;;;;;;23.95;13.90;;;5.30;74.10;;;;;;4926943;29;20279;-66
2023/03/08 10:05:46;;;;;;;24.50;13.68;;;5.30;74.30;;;;;;4922891;29;20220;-64
2023/03/08 10:08:26;;;;;;;26.17;14.93;;;5.30;74.40;;;;;;4920816;29;20210;-64
2023/03/08 10:11:06;;;;;;;27.42;16.45;;;5.30;74.60;;;;;;4923322;29;20201;-64
2023/03/08 10:13:41;;;;;;;23.95;14.38;;;5.40;74.40;;;;;;4922336;29;20223;-64
2023/03/08 10:16:22;;;;;;;26.10;16.30;;;5.40;74.40;;;;;;4926642;29;20197;-65
2023/03/08 10:19:10;;;;;;;24.48;14.52;;;5.50;74.50;;;;;;4908858;29;20220;-67
2023/03/08 10:21:42;;;;;;;24.20;13.35;;;5.50;74.70;;;;;;4923123;29;20224;-67
2023/03/08 10:24:16;;;;;;;23.70;14.23;;;5.50;74.50;;;;;;4920340;29;20292;-65
2023/03/08 10:26:56;;;;;;;28.13;14.00;;;5.50;74.70;;;;;;4926521;29;20224;-65
2023/03/08 10:29:36;;;;;;;22.77;13.82;;;5.40;74.90;;;;;;4928241;29;20233;-65
2023/03/08 10:32:18;;;;;;;23.35;13.90;;;5.40;75.00;;;;;;4923547;29;20237;-65
2023/03/08 10:35:00;;;;;;;26.30;16.60;;;5.50;75.20;;;;;;4926844;29;20212;-65
2023/03/08 10:37:33;;;;;;;27.60;15.65;;;5.50;75.10;;;;;;4912128;29;20209;-65
2023/03/08 10:40:07;;;;;;;34.17;17.35;;;5.50;75.20;;;;;;4921892;29;20288;-65
2023/03/08 10:42:40;;;;;;;33.45;19.48;;;5.50;75.30;;;;;;4928688;29;20677;-65
2023/03/08 10:45:22;;;;;;;34.63;19.83;;;5.50;75.30;;;;;;4923392;29;20249;-65
2023/03/08 10:48:04;;;;;;;25.63;16.20;;;5.50;75.40;;;;;;4926174;29;20220;-65
2023/03/08 10:50:38;;;;;;;30.05;17.38;;;5.60;75.60;;;;;;4925181;29;20229;-65
2023/03/08 10:53:22;;;;;;;24.17;14.35;;;5.60;75.60;;;;;;4927018;29;20300;-65
2023/03/08 10:55:52;;;;;;;26.83;15.32;;;5.60;75.60;;;;;;4927885;29;20201;-65
2023/03/08 10:58:38;;;;;;;36.30;21.65;;;5.70;75.40;;;;;;4928157;29;20218;-65
2023/03/08 11:01:25;;;;;;;30.50;17.30;;;5.70;75.50;;;;;;4919630;29;20236;-65
2023/03/08 11:04:18;;;;;;;26.40;15.32;;;5.60;75.90;;;;;;4925326;29;20211;-65
2023/03/08 11:06:55;;;;;;;26.35;16.27;;;5.60;75.90;;;;;;4928117;29;20210;-67
2023/03/08 11:09:30;;;;;;;24.20;14.27;;;5.60;76.10;;;;;;4925907;29;20304;-65
2023/03/08 11:12:05;;;;;;;22.92;14.10;;;5.70;76.00;;;;;;4928037;29;20210;-65
2023/03/08 11:14:44;;;;;;;38.25;19.10;;;5.70;76.10;;;;;;4925348;29;20590;-65
2023/03/08 11:17:25;;;;;;;25.45;14.60;;;5.70;76.30;;;;;;4924762;29;20303;-64
2023/03/08 11:23:30;;;;;;;28.77;16.20;;;5.80;76.30;;;;;;5194269;27;20841;-66
2023/03/08 11:26:11;;;;;;;24.85;14.07;;;5.90;76.40;;;;;;5185243;27;20197;-66
2023/03/08 11:29:06;;;;;;;21.30;13.40;;;6.00;76.40;;;;;;5184843;27;20214;-66
2023/03/08 11:31:44;;;;;;;29.92;17.95;;;6.00;76.40;;;;;;5169915;27;20225;-65
2023/03/08 11:34:48;;;;;;;33.50;17.05;;;5.90;76.40;;;;;;5161833;27;20207;-65
2023/03/08 11:37:33;;;;;;;42.58;20.35;;;5.90;76.40;;;;;;5159737;27;20218;-67
2023/03/08 11:40:24;;;;;;;31.00;18.85;;;5.90;76.40;;;;;;5166707;27;20225;-65
2023/03/08 11:43:09;;;;;;;36.78;22.70;;;5.90;76.40;;;;;;5161121;27;21045;-66
2023/03/08 11:45:50;;;;;;;31.95;19.02;;;5.90;76.30;;;;;;5161685;27;20194;-66
2023/03/08 11:48:47;;;;;;;32.72;20.08;;;5.90;76.50;;;;;;5158843;27;20198;-64
2023/03/08 11:51:35;;;;;;;32.78;18.38;;;5.90;76.80;;;;;;5158418;27;20660;-64
2023/03/08 11:54:19;;;;;;;35.08;21.25;;;6.00;76.70;;;;;;5164806;27;20229;-64
2023/03/08 11:57:01;;;;;;;29.65;18.20;;;6.00;77.00;;;;;;5160807;27;21406;-64
2023/03/08 11:59:35;;;;;;;29.33;16.13;;;6.00;77.20;;;;;;5162915;27;20193;-64
2023/03/08 12:02:21;;;;;;;24.90;15.82;;;6.10;77.50;;;;;;5159082;27;20310;-64
2023/03/08 12:05:03;;;;;;;29.55;18.02;;;6.10;77.50;;;;;;5162924;27;20202;-64
2023/03/08 12:07:46;;;;;;;35.50;23.20;;;6.20;77.50;;;;;;5164115;27;20208;-65
2023/03/08 12:10:28;;;;;;;28.27;18.42;;;6.20;77.50;;;;;;5167509;27;20304;-64
2023/03/08 12:13:14;;;;;;;24.55;16.05;;;6.30;77.80;;;;;;5163325;27;20194;-64
2023/03/08 12:15:54;;;;;;;26.52;15.25;;;6.50;77.80;;;;;;5158676;27;20285;-65
2023/03/08 12:18:37;;;;;;;31.23;20.02;;;6.60;78.00;;;;;;5157466;27;20302;-65
2023/03/08 12:21:22;;;;;;;19.80;13.55;;;6.70;78.00;;;;;;5164419;27;20215;-64
2023/03/08 12:24:04;;;;;;;21.20;13.43;;;6.80;77.90;;;;;;5159422;27;20203;-65
2023/03/08 12:26:44;;;;;;;23.23;14.02;;;6.90;78.00;;;;;;5162971;27;20195;-63
2023/03/08 12:29:27;;;;;;;19.30;12.48;;;7.00;78.00;;;;;;5161239;27;20229;-63
2023/03/08 12:32:03;;;;;;;22.30;12.43;;;7.00;78.20;;;;;;5159338;27;20227;-64
2023/03/08 12:34:41;;;;;;;20.95;12.75;;;7.00;78.10;;;;;;5144447;27;20235;-63
2023/03/08 12:37:28;;;;;;;20.05;13.13;;;7.10;78.10;;;;;;5149874;27;20209;-64
2023/03/08 12:40:11;;;;;;;24.52;14.82;;;7.20;78.20;;;;;;5145582;27;20219;-63
2023/03/08 12:45:38;;;;;;;20.08;13.02;;;7.30;78.20;;;;;;5141669;27;20338;-63
2023/03/08 12:48:28;;;;;;;22.48;14.18;;;7.50;78.10;;;;;;5143827;27;20297;-63
2023/03/08 12:51:06;;;;;;;21.33;13.50;;;7.60;78.20;;;;;;5142962;27;20542;-64
2023/03/08 12:53:44;;;;;;;21.88;13.90;;;7.60;78.20;;;;;;5144829;27;20835;-64
2023/03/08 12:56:33;;;;;;;20.77;13.27;;;7.70;78.20;;;;;;5139773;27;20220;-63
2023/03/08 12:59:31;;;;;;;22.43;13.77;;;7.80;78.20;;;;;;5124520;27;20760;-64
2023/03/08 13:02:25;;;;;;;21.90;13.80;;;7.90;78.30;;;;;;5123828;27;20829;-65
2023/03/08 13:05:39;;;;;;;21.52;13.35;;;8.00;78.10;;;;;;5145437;27;20537;-65
2023/03/08 13:08:32;;;;;;;21.07;13.53;;;8.00;78.10;;;;;;5145753;27;20204;-64
2023/03/08 13:11:11;;;;;;;21.53;13.30;;;8.10;78.10;;;;;;5145906;27;20462;-66
2023/03/08 13:13:53;;;;;;;19.53;13.00;;;8.10;78.00;;;;;;5145286;27;20464;-65
2023/03/08 13:16:38;;;;;;;21.00;13.33;;;8.10;78.00;;;;;;5148721;27;20453;-65
2023/03/08 13:19:32;;;;;;;17.63;12.23;;;8.20;78.10;;;;;;5129645;27;20811;-64
2023/03/08 13:22:24;;;;;;;18.33;11.40;;;8.20;78.10;;;;;;5149926;27;20496;-64
2023/03/08 13:24:58;;;;;;;17.67;11.20;;;8.30;77.80;;;;;;5147014;27;20540;-64
2023/03/08 13:27:45;;;;;;;15.87;10.47;;;8.30;77.90;;;;;;5144141;27;20481;-64
2023/03/08 13:30:28;;;;;;;20.53;12.30;;;8.30;78.10;;;;;;5149721;27;20453;-64
2023/03/08 13:33:12;;;;;;;19.70;11.40;;;8.30;78.10;;;;;;5147236;27;20460;-64
2023/03/08 13:35:56;;;;;;;17.70;11.00;;;8.30;78.00;;;;;;5141871;27;20454;-65
2023/03/08 13:38:27;;;;;;;16.80;11.73;;;8.30;78.00;;;;;;5146784;27;20549;-64
2023/03/08 13:41:01;;;;;;;16.17;9.77;;;8.30;78.10;;;;;;5145981;27;20524;-64
2023/03/08 13:43:42;;;;;;;18.33;10.40;;;8.40;78.10;;;;;;5146932;27;20865;-65
2023/03/08 13:46:22;;;;;;;15.03;10.73;;;8.40;78.10;;;;;;5146847;27;20496;-65
2023/03/08 13:48:56;;;;;;;15.07;9.80;;;8.40;78.10;;;;;;5143190;27;20520;-65
2023/03/08 13:51:33;;;;;;;13.23;9.07;;;8.40;78.20;;;;;;5146967;27;20510;-65
2023/03/08 13:54:12;;;;;;;14.47;9.53;;;8.50;78.30;;;;;;5142228;27;20255;-65
2023/03/08 13:56:47;;;;;;;16.53;10.70;;;8.50;78.30;;;;;;5147961;27;20497;-65